Time;durP1;ratioP1;P1;durP2;ratioP2;P2;SDS_P1;SDS_P2;PMS_P1;PMS_P2;Temp;Humidity;BMP_temperature;BMP_pressure;BME280_temperature;BME280_humidity;BME280_pressure;Samples;Min_cycle;Max_cycle;Signal;HPM_P1;HPM_P2
2021/11/25 00:01:22;;;;;;;18.23;13.60;;;2.70;99.90;;;;;;5048143;28;20478;-62
2021/11/25 00:03:49;;;;;;;23.27;14.53;;;2.70;99.90;;;;;;5047506;28;20462;-57
2021/11/25 00:06:17;;;;;;;18.77;13.50;;;2.70;99.90;;;;;;5047301;28;20451;-62
2021/11/25 00:08:44;;;;;;;18.97;12.80;;;2.70;99.90;;;;;;5049448;28;20505;-62
2021/11/25 00:11:11;;;;;;;21.47;14.33;;;2.70;99.90;;;;;;5051371;28;20464;-62
2021/11/25 00:13:38;;;;;;;18.73;13.13;;;2.80;99.90;;;;;;5052045;28;20539;-62
2021/11/25 00:16:05;;;;;;;19.63;13.87;;;2.80;99.90;;;;;;5051085;28;20455;-62
2021/11/25 00:18:32;;;;;;;20.70;13.50;;;2.80;99.90;;;;;;5050511;28;20479;-60
2021/11/25 00:20:59;;;;;;;20.50;14.33;;;2.80;99.90;;;;;;5051244;28;20471;-61
2021/11/25 00:23:27;;;;;;;22.07;13.63;;;2.80;99.90;;;;;;5051253;28;20519;-62
2021/11/25 00:25:54;;;;;;;18.27;14.50;;;2.80;99.90;;;;;;5052883;28;20462;-62
2021/11/25 00:28:20;;;;;;;20.40;13.13;;;2.80;99.90;;;;;;5051707;28;20554;-62
2021/11/25 00:30:47;;;;;;;22.67;12.40;;;2.90;99.90;;;;;;5053289;28;20465;-63
2021/11/25 00:33:14;;;;;;;17.20;12.37;;;2.80;99.90;;;;;;5053074;28;20455;-62
2021/11/25 00:35:41;;;;;;;17.47;13.10;;;2.80;99.90;;;;;;5053015;28;20449;-60
2021/11/25 00:38:08;;;;;;;21.10;13.90;;;2.80;99.90;;;;;;5052318;28;20475;-62
2021/11/25 00:40:36;;;;;;;20.20;13.63;;;2.80;99.90;;;;;;5053664;28;20533;-61
2021/11/25 00:43:03;;;;;;;19.70;14.20;;;2.80;99.90;;;;;;5052956;28;20447;-61
2021/11/25 00:45:30;;;;;;;16.93;12.50;;;2.80;99.90;;;;;;5052668;28;20453;-62
2021/11/25 00:47:57;;;;;;;20.83;14.60;;;2.80;99.90;;;;;;5051577;28;20484;-62
2021/11/25 00:50:24;;;;;;;17.93;12.30;;;2.70;99.90;;;;;;5052644;28;20454;-60
2021/11/25 00:52:51;;;;;;;19.90;12.97;;;2.70;99.90;;;;;;5052915;28;20668;-63
2021/11/25 00:55:19;;;;;;;19.03;11.90;;;2.80;99.90;;;;;;5052479;28;20945;-61
2021/11/25 00:57:48;;;;;;;19.93;13.43;;;2.80;99.90;;;;;;5051168;28;20464;-62
2021/11/25 01:00:17;;;;;;;20.90;12.83;;;2.80;99.90;;;;;;5052299;28;20466;-60
2021/11/25 01:02:44;;;;;;;17.73;11.63;;;2.90;99.90;;;;;;5052295;28;20480;-63
2021/11/25 01:05:13;;;;;;;15.27;12.30;;;2.80;99.90;;;;;;5052149;28;20447;-63
2021/11/25 01:07:40;;;;;;;18.63;12.20;;;2.90;99.90;;;;;;5050870;28;20990;-59
2021/11/25 01:10:09;;;;;;;22.03;13.40;;;2.90;99.90;;;;;;5052342;28;20464;-63
2021/11/25 01:12:37;;;;;;;18.90;14.20;;;2.90;99.90;;;;;;5052280;28;20527;-59
2021/11/25 01:15:07;;;;;;;18.20;12.67;;;2.80;99.90;;;;;;5052176;28;20450;-62
2021/11/25 01:17:34;;;;;;;16.67;13.53;;;2.80;99.90;;;;;;5050617;28;20474;-60
2021/11/25 01:20:01;;;;;;;19.20;13.50;;;2.80;99.90;;;;;;5051293;28;20448;-60
2021/11/25 01:22:28;;;;;;;19.07;13.50;;;2.80;99.90;;;;;;5052192;28;20443;-61
2021/11/25 01:24:59;;;;;;;17.73;12.77;;;2.80;99.90;;;;;;5052106;28;20451;-59
2021/11/25 01:27:26;;;;;;;21.23;13.83;;;2.80;99.90;;;;;;5050733;28;20854;-61
2021/11/25 01:29:53;;;;;;;18.67;12.70;;;2.80;99.90;;;;;;5052010;28;20444;-57
2021/11/25 01:32:21;;;;;;;20.17;13.43;;;2.80;99.90;;;;;;5051975;28;20460;-63
2021/11/25 01:34:48;;;;;;;17.83;13.03;;;2.90;99.90;;;;;;5052337;28;20451;-58
2021/11/25 01:37:15;;;;;;;18.97;12.20;;;2.80;99.90;;;;;;5051124;28;20847;-60
2021/11/25 01:39:42;;;;;;;18.53;13.40;;;2.90;99.90;;;;;;5052180;28;20983;-57
2021/11/25 01:42:09;;;;;;;18.60;13.67;;;2.90;99.90;;;;;;5051994;28;20451;-62
2021/11/25 01:44:36;;;;;;;18.57;12.20;;;2.90;99.90;;;;;;5051778;28;20467;-62
2021/11/25 01:47:03;;;;;;;17.90;13.20;;;2.80;99.90;;;;;;5050620;28;20474;-57
2021/11/25 01:49:31;;;;;;;21.57;13.70;;;2.80;99.90;;;;;;5051476;28;20483;-62
2021/11/25 01:51:58;;;;;;;18.57;12.60;;;2.80;99.90;;;;;;5051579;28;20458;-60
2021/11/25 01:54:25;;;;;;;18.77;12.97;;;2.80;99.90;;;;;;5051516;28;20457;-60
2021/11/25 01:56:52;;;;;;;18.67;13.10;;;2.80;99.90;;;;;;5050072;28;20462;-61
2021/11/25 01:59:19;;;;;;;17.33;12.90;;;2.80;99.90;;;;;;5051208;28;20946;-58
2021/11/25 02:01:46;;;;;;;18.90;15.03;;;2.90;99.90;;;;;;5051498;28;20454;-60
2021/11/25 02:04:13;;;;;;;17.90;13.40;;;2.90;99.90;;;;;;5051236;28;20451;-63
2021/11/25 02:06:42;;;;;;;18.70;13.37;;;2.90;99.90;;;;;;5050143;28;20804;-60
2021/11/25 02:09:10;;;;;;;16.97;11.70;;;2.90;99.90;;;;;;5051081;28;20487;-55
2021/11/25 02:11:38;;;;;;;16.73;12.97;;;2.90;99.90;;;;;;5050955;28;20463;-61
2021/11/25 02:14:05;;;;;;;18.40;12.60;;;2.80;99.90;;;;;;5051198;28;20458;-59
2021/11/25 02:16:32;;;;;;;19.20;13.50;;;2.90;99.90;;;;;;5050428;28;20479;-59
2021/11/25 02:18:59;;;;;;;16.93;13.60;;;2.90;99.90;;;;;;5050735;28;21006;-61
2021/11/25 02:21:29;;;;;;;17.43;12.27;;;2.90;99.90;;;;;;5051000;28;20452;-62
2021/11/25 02:23:56;;;;;;;19.03;12.73;;;2.80;99.90;;;;;;5050843;28;20877;-62
2021/11/25 02:26:23;;;;;;;18.77;12.80;;;2.80;99.90;;;;;;5050106;28;20508;-62
2021/11/25 02:28:50;;;;;;;20.43;13.60;;;2.80;99.90;;;;;;5050366;28;20497;-62
2021/11/25 02:31:17;;;;;;;18.70;13.73;;;2.80;99.90;;;;;;5050003;28;20540;-63
2021/11/25 02:33:44;;;;;;;19.90;12.80;;;2.80;99.90;;;;;;5050474;28;20462;-62
2021/11/25 02:36:11;;;;;;;19.83;13.30;;;2.80;99.90;;;;;;5050291;28;20957;-60
2021/11/25 02:38:40;;;;;;;17.13;12.43;;;2.70;99.90;;;;;;5049061;28;20461;-62
2021/11/25 02:41:07;;;;;;;20.43;12.80;;;2.60;99.90;;;;;;5050481;28;20447;-63
2021/11/25 02:43:36;;;;;;;18.93;13.83;;;2.60;99.90;;;;;;5050594;28;20452;-58
2021/11/25 02:46:06;;;;;;;22.13;15.03;;;2.60;99.90;;;;;;5050273;28;20457;-60
2021/11/25 02:48:39;;;;;;;19.20;13.93;;;2.60;99.90;;;;;;5049406;28;20519;-63
2021/11/25 02:51:06;;;;;;;17.23;13.37;;;2.60;99.90;;;;;;5050238;28;20452;-63
2021/11/25 02:53:35;;;;;;;19.87;13.30;;;2.60;99.90;;;;;;5050723;28;20448;-62
2021/11/25 02:56:06;;;;;;;20.20;14.47;;;2.60;99.90;;;;;;5050481;28;20465;-59
2021/11/25 02:58:33;;;;;;;21.70;12.90;;;2.60;99.90;;;;;;5049602;28;20467;-60
2021/11/25 03:01:08;;;;;;;22.10;14.70;;;2.70;99.90;;;;;;5050387;28;20447;-62
2021/11/25 03:03:35;;;;;;;19.43;13.73;;;2.70;99.90;;;;;;5050209;28;20457;-61
2021/11/25 03:06:02;;;;;;;17.93;13.07;;;2.70;99.90;;;;;;5050826;28;20446;-61
2021/11/25 03:08:29;;;;;;;20.90;13.50;;;2.70;99.90;;;;;;5049813;28;20488;-62
2021/11/25 03:11:03;;;;;;;21.73;14.27;;;2.80;99.90;;;;;;5050378;28;20566;-61
2021/11/25 03:13:32;;;;;;;21.30;12.87;;;2.70;99.90;;;;;;5050298;28;20444;-63
2021/11/25 03:15:59;;;;;;;19.30;14.10;;;2.70;99.90;;;;;;5050021;28;20450;-60
2021/11/25 03:18:28;;;;;;;21.07;12.93;;;2.60;99.90;;;;;;5048786;28;20994;-61
2021/11/25 03:20:56;;;;;;;22.47;14.80;;;2.40;99.90;;;;;;5049852;28;20948;-62
2021/11/25 03:23:25;;;;;;;20.50;12.80;;;2.40;99.90;;;;;;5050038;28;20452;-60
2021/11/25 03:25:53;;;;;;;20.83;12.47;;;2.40;99.90;;;;;;5049944;28;20446;-60
2021/11/25 03:28:20;;;;;;;22.00;14.47;;;2.30;99.90;;;;;;5048790;28;20485;-57
2021/11/25 03:30:54;;;;;;;20.43;13.90;;;2.40;99.90;;;;;;5049604;28;20455;-63
2021/11/25 03:33:21;;;;;;;19.93;14.10;;;2.40;99.90;;;;;;5050235;28;20450;-62
2021/11/25 03:35:49;;;;;;;25.77;14.47;;;2.40;99.90;;;;;;5049578;28;20457;-61
2021/11/25 03:38:15;;;;;;;20.90;14.67;;;2.40;99.90;;;;;;5048649;28;20465;-62
2021/11/25 03:40:43;;;;;;;21.00;13.77;;;2.50;99.90;;;;;;5049595;28;20456;-60
2021/11/25 03:43:10;;;;;;;22.50;13.90;;;2.60;99.90;;;;;;5050910;28;20448;-60
2021/11/25 03:45:37;;;;;;;24.97;14.63;;;2.50;99.90;;;;;;5053663;28;20455;-60
2021/11/25 03:48:07;;;;;;;19.77;13.47;;;2.60;99.90;;;;;;5052677;28;20476;-57
2021/11/25 03:50:34;;;;;;;22.73;14.00;;;2.60;99.90;;;;;;5053536;28;20449;-63
2021/11/25 03:53:01;;;;;;;21.70;13.37;;;2.60;99.90;;;;;;5053790;28;20446;-62
2021/11/25 03:55:28;;;;;;;22.77;15.40;;;2.60;99.90;;;;;;5053685;28;20954;-60
2021/11/25 03:57:55;;;;;;;24.17;15.33;;;2.60;99.90;;;;;;5052518;28;20467;-57
2021/11/25 04:00:23;;;;;;;22.80;14.20;;;2.60;99.90;;;;;;5053741;28;20462;-60
2021/11/25 04:02:52;;;;;;;21.17;14.80;;;2.60;99.90;;;;;;5053361;28;20532;-61
2021/11/25 04:05:20;;;;;;;23.87;15.77;;;2.60;99.90;;;;;;5053837;28;20450;-60
2021/11/25 04:07:47;;;;;;;22.27;15.50;;;2.60;99.90;;;;;;5052189;28;20978;-55
2021/11/25 04:10:15;;;;;;;21.13;14.40;;;2.60;99.90;;;;;;5053294;28;20495;-58
2021/11/25 04:12:43;;;;;;;22.60;15.23;;;2.60;99.90;;;;;;5053708;28;20537;-62
2021/11/25 04:15:12;;;;;;;25.13;15.43;;;2.60;99.90;;;;;;5053765;28;20456;-63
2021/11/25 04:17:39;;;;;;;25.13;15.83;;;2.50;99.90;;;;;;5052484;28;20482;-61
2021/11/25 04:20:08;;;;;;;21.10;13.87;;;2.50;99.90;;;;;;5053541;28;20444;-63
2021/11/25 04:22:36;;;;;;;20.53;13.73;;;2.50;99.90;;;;;;5053043;28;20444;-62
2021/11/25 04:25:05;;;;;;;22.63;14.77;;;2.50;99.90;;;;;;5053323;28;20535;-62
2021/11/25 04:27:32;;;;;;;24.33;14.93;;;2.50;99.90;;;;;;5052059;28;20489;-62
2021/11/25 04:30:04;;;;;;;25.87;14.77;;;2.50;99.90;;;;;;5053032;28;20480;-61
2021/11/25 04:35:29;;;;;;;23.83;14.87;;;2.50;99.90;;;;;;5053036;28;21054;-62
2021/11/25 04:37:58;;;;;;;21.37;13.77;;;2.50;99.90;;;;;;5051847;28;20464;-60
2021/11/25 04:40:24;;;;;;;23.17;14.27;;;2.50;99.90;;;;;;5052926;28;20455;-63
2021/11/25 04:42:51;;;;;;;23.77;15.10;;;2.60;99.90;;;;;;5052637;28;20451;-60
2021/11/25 04:45:18;;;;;;;23.13;15.10;;;2.60;99.90;;;;;;5052749;28;20487;-60
2021/11/25 04:47:45;;;;;;;21.40;14.30;;;2.60;99.90;;;;;;5051351;28;20468;-61
2021/11/25 04:50:12;;;;;;;21.03;13.33;;;2.70;99.90;;;;;;5052782;28;20485;-58
2021/11/25 04:52:39;;;;;;;21.73;14.43;;;2.70;99.90;;;;;;5052760;28;20484;-60
2021/11/25 04:55:08;;;;;;;22.33;14.03;;;2.70;99.90;;;;;;5051369;28;20447;-62
2021/11/25 04:57:35;;;;;;;24.50;15.70;;;2.70;99.90;;;;;;5051318;28;20529;-59
2021/11/25 05:00:02;;;;;;;21.90;13.80;;;2.70;99.90;;;;;;5052468;28;20978;-62
2021/11/25 05:02:29;;;;;;;23.63;15.33;;;2.60;99.90;;;;;;5052510;28;20442;-59
2021/11/25 05:04:55;;;;;;;25.70;15.10;;;2.60;99.90;;;;;;5052396;28;20944;-60
2021/11/25 05:07:22;;;;;;;21.67;14.93;;;2.60;99.90;;;;;;5051219;28;20473;-62
2021/11/25 05:09:49;;;;;;;20.30;14.40;;;2.60;99.90;;;;;;5052029;28;20497;-60
2021/11/25 05:12:17;;;;;;;27.83;14.17;;;2.60;99.90;;;;;;5052259;28;20455;-53
2021/11/25 05:14:44;;;;;;;20.90;14.43;;;2.70;99.90;;;;;;5051931;28;20457;-61
2021/11/25 05:17:11;;;;;;;21.43;15.30;;;2.80;99.90;;;;;;5050901;28;20822;-66
2021/11/25 05:19:38;;;;;;;21.10;14.30;;;2.80;99.90;;;;;;5051896;28;20469;-62
2021/11/25 05:22:05;;;;;;;25.80;16.20;;;2.80;99.90;;;;;;5051912;28;20446;-60
2021/11/25 05:24:32;;;;;;;22.20;14.77;;;2.90;99.90;;;;;;5051856;28;20474;-59
2021/11/25 05:26:59;;;;;;;21.50;14.97;;;2.90;99.90;;;;;;5050731;28;20454;-60
2021/11/25 05:29:27;;;;;;;20.47;14.83;;;2.90;99.90;;;;;;5051561;28;20478;-61
2021/11/25 05:31:54;;;;;;;22.53;15.20;;;2.90;99.90;;;;;;5052142;28;20458;-61
2021/11/25 05:34:21;;;;;;;24.67;15.37;;;2.90;99.90;;;;;;5051912;28;20451;-62
2021/11/25 05:36:48;;;;;;;23.63;16.00;;;2.80;99.90;;;;;;5050623;28;20452;-56
2021/11/25 05:39:15;;;;;;;25.30;15.90;;;2.80;99.90;;;;;;5051948;28;20452;-62
2021/11/25 05:41:43;;;;;;;24.03;15.50;;;2.70;99.90;;;;;;5051863;28;20501;-59
2021/11/25 05:44:10;;;;;;;24.77;15.57;;;2.80;99.90;;;;;;5051446;28;20456;-62
2021/11/25 05:46:38;;;;;;;23.67;15.67;;;2.70;99.90;;;;;;5050263;28;20456;-61
2021/11/25 05:49:05;;;;;;;23.47;14.97;;;2.60;99.90;;;;;;5051360;28;20485;-59
2021/11/25 05:51:33;;;;;;;24.60;15.80;;;2.70;99.90;;;;;;5051433;28;20446;-58
2021/11/25 05:54:00;;;;;;;22.40;16.70;;;2.70;99.90;;;;;;5051606;28;20464;-61
2021/11/25 05:56:27;;;;;;;22.77;15.93;;;2.80;99.90;;;;;;5050549;28;20542;-59
2021/11/25 05:58:55;;;;;;;23.83;16.40;;;2.80;99.90;;;;;;5050749;28;20464;-63
2021/11/25 06:01:27;;;;;;;24.70;16.40;;;2.80;99.90;;;;;;5049977;28;20992;-65
2021/11/25 06:03:55;;;;;;;22.80;14.90;;;2.80;99.90;;;;;;5051120;28;20478;-64
2021/11/25 06:06:23;;;;;;;26.03;17.80;;;2.90;99.90;;;;;;5050110;28;20538;-64
2021/11/25 06:08:50;;;;;;;28.47;18.20;;;2.90;99.90;;;;;;5050374;28;20475;-59
2021/11/25 06:11:18;;;;;;;28.67;20.77;;;2.90;99.90;;;;;;5050793;28;20953;-62
2021/11/25 06:13:46;;;;;;;26.03;18.23;;;3.00;99.90;;;;;;5050943;28;20506;-62
2021/11/25 06:16:13;;;;;;;26.30;15.90;;;3.10;99.90;;;;;;5050500;28;20904;-63
2021/11/25 06:18:40;;;;;;;24.40;16.23;;;3.10;99.90;;;;;;5049793;28;20472;-59
2021/11/25 06:21:08;;;;;;;27.00;17.73;;;3.10;99.90;;;;;;5050423;28;20455;-62
2021/11/25 06:23:36;;;;;;;27.70;18.50;;;3.00;99.90;;;;;;5050518;28;20823;-63
2021/11/25 06:26:03;;;;;;;29.03;18.20;;;3.10;99.90;;;;;;5050259;28;20457;-60
2021/11/25 06:28:30;;;;;;;23.80;17.47;;;3.10;99.90;;;;;;5049415;28;20468;-60
2021/11/25 06:30:57;;;;;;;25.90;16.20;;;3.20;99.90;;;;;;5050456;28;21077;-62
2021/11/25 06:33:24;;;;;;;23.37;17.07;;;3.20;99.90;;;;;;5050370;28;20447;-62
2021/11/25 06:35:51;;;;;;;24.80;16.73;;;3.10;99.90;;;;;;5050271;28;20481;-67
2021/11/25 06:38:20;;;;;;;24.33;16.53;;;3.20;99.90;;;;;;5046078;28;20555;-59
2021/11/25 06:40:48;;;;;;;24.27;16.60;;;3.20;99.90;;;;;;5042824;28;20444;-61
2021/11/25 06:43:15;;;;;;;24.23;16.10;;;3.20;99.90;;;;;;5046599;28;20463;-58
2021/11/25 06:45:43;;;;;;;28.03;18.00;;;3.20;99.90;;;;;;5046494;28;20456;-62
2021/11/25 06:48:10;;;;;;;28.13;16.97;;;3.30;99.90;;;;;;5048956;28;20470;-59
2021/11/25 06:50:37;;;;;;;23.20;16.27;;;3.30;99.90;;;;;;5050221;28;20485;-58
2021/11/25 06:53:05;;;;;;;26.20;17.00;;;3.30;99.90;;;;;;5050455;28;20832;-62
2021/11/25 06:55:33;;;;;;;25.23;16.90;;;3.30;99.90;;;;;;5050228;28;20448;-58
2021/11/25 06:58:00;;;;;;;23.67;17.13;;;3.30;99.90;;;;;;5049204;28;20463;-61
2021/11/25 07:00:27;;;;;;;24.70;17.27;;;3.30;99.90;;;;;;5050119;28;20535;-62
2021/11/25 07:02:54;;;;;;;26.50;16.40;;;3.40;99.90;;;;;;5050000;28;20456;-62
2021/11/25 07:05:22;;;;;;;26.37;18.57;;;3.40;99.90;;;;;;5049926;28;20874;-61
2021/11/25 07:07:50;;;;;;;28.40;18.60;;;3.40;99.90;;;;;;5048089;28;20467;-61
2021/11/25 07:10:16;;;;;;;29.87;17.40;;;3.40;99.90;;;;;;5048760;28;20484;-62
2021/11/25 07:12:46;;;;;;;26.60;16.87;;;3.40;99.90;;;;;;5044139;28;20554;-62
2021/11/25 07:15:14;;;;;;;28.30;18.07;;;3.40;99.90;;;;;;5047893;28;20506;-63
2021/11/25 07:17:42;;;;;;;26.93;19.10;;;3.40;99.90;;;;;;5038793;28;20468;-60
2021/11/25 07:20:09;;;;;;;24.60;16.60;;;3.40;99.90;;;;;;5049102;28;20444;-61
2021/11/25 07:22:38;;;;;;;27.50;16.90;;;3.40;99.90;;;;;;5048503;28;20458;-62
2021/11/25 07:25:06;;;;;;;25.17;16.90;;;3.40;99.90;;;;;;5048814;28;20546;-61
2021/11/25 07:27:33;;;;;;;28.60;19.60;;;3.40;99.90;;;;;;5047213;28;20645;-62
2021/11/25 07:30:01;;;;;;;25.40;17.43;;;3.50;99.90;;;;;;5046227;28;21030;-56
2021/11/25 07:32:28;;;;;;;26.27;19.13;;;3.50;99.90;;;;;;5044958;28;20444;-59
2021/11/25 07:34:55;;;;;;;26.27;17.80;;;3.50;99.90;;;;;;5048743;28;20440;-63
2021/11/25 07:37:22;;;;;;;26.43;17.13;;;3.50;99.90;;;;;;5048151;28;20903;-63
2021/11/25 07:39:49;;;;;;;27.83;18.33;;;3.50;99.90;;;;;;5049496;28;20764;-62
2021/11/25 07:42:16;;;;;;;25.10;16.73;;;3.60;99.90;;;;;;5049660;28;20444;-64
2021/11/25 07:44:43;;;;;;;29.10;18.20;;;3.60;99.90;;;;;;5049663;28;20459;-62
2021/11/25 07:47:11;;;;;;;27.80;17.40;;;3.60;99.90;;;;;;5048030;28;20459;-63
2021/11/25 07:49:38;;;;;;;26.33;18.43;;;3.60;99.90;;;;;;5049335;28;20954;-61
2021/11/25 07:52:06;;;;;;;25.90;17.60;;;3.60;99.90;;;;;;5049728;28;20834;-61
2021/11/25 07:54:33;;;;;;;27.80;18.53;;;3.70;99.90;;;;;;5049618;28;20456;-62
2021/11/25 07:57:00;;;;;;;27.43;17.30;;;3.70;99.90;;;;;;5048025;28;20486;-63
2021/11/25 07:59:27;;;;;;;25.17;17.27;;;3.80;99.90;;;;;;5049190;28;20521;-61
2021/11/25 08:01:55;;;;;;;26.73;16.07;;;3.80;99.90;;;;;;5049551;28;20460;-61
2021/11/25 08:04:24;;;;;;;29.63;18.50;;;3.90;99.90;;;;;;5049245;28;20451;-61
2021/11/25 08:06:51;;;;;;;27.40;16.90;;;3.90;99.90;;;;;;5048473;28;20548;-61
2021/11/25 08:09:17;;;;;;;25.07;17.57;;;3.90;99.90;;;;;;5049130;28;20457;-61
2021/11/25 08:11:44;;;;;;;25.63;17.50;;;4.00;99.90;;;;;;5049265;28;20469;-63
2021/11/25 08:14:11;;;;;;;27.10;17.63;;;4.10;99.90;;;;;;5049616;28;20456;-66
2021/11/25 08:16:39;;;;;;;24.23;16.30;;;4.10;99.90;;;;;;5049031;28;20451;-63
2021/11/25 08:19:06;;;;;;;26.23;16.73;;;4.10;99.90;;;;;;5050504;28;20472;-62
2021/11/25 08:21:35;;;;;;;26.90;18.00;;;4.10;99.90;;;;;;5050525;28;20435;-65
2021/11/25 08:24:02;;;;;;;26.20;17.50;;;4.10;99.90;;;;;;5049852;28;20540;-65
2021/11/25 08:26:29;;;;;;;25.60;17.33;;;4.10;99.90;;;;;;5047358;28;20542;-64
2021/11/25 08:28:56;;;;;;;27.27;17.43;;;4.20;99.90;;;;;;5050885;28;20467;-64
2021/11/25 08:31:23;;;;;;;27.40;16.43;;;4.20;99.90;;;;;;5053925;28;20873;-64
2021/11/25 08:33:50;;;;;;;25.57;17.07;;;4.10;99.90;;;;;;5054081;28;20857;-61
2021/11/25 08:36:17;;;;;;;25.83;17.70;;;4.10;99.90;;;;;;5053073;28;20466;-64
2021/11/25 08:38:45;;;;;;;26.97;18.93;;;4.10;99.90;;;;;;5053136;28;20472;-63
2021/11/25 08:41:12;;;;;;;23.43;16.00;;;4.20;99.90;;;;;;5053748;28;20541;-63
2021/11/25 08:43:39;;;;;;;29.73;16.47;;;4.20;99.90;;;;;;5053383;28;20448;-64
2021/11/25 08:46:06;;;;;;;25.07;17.13;;;4.20;99.90;;;;;;5053867;28;20447;-64
2021/11/25 08:48:33;;;;;;;27.30;17.10;;;4.10;99.90;;;;;;5052989;28;20471;-62
2021/11/25 08:51:02;;;;;;;28.73;18.90;;;4.20;99.90;;;;;;5053235;28;20486;-60
2021/11/25 08:53:30;;;;;;;22.73;15.27;;;4.30;99.90;;;;;;5053060;28;20496;-63
2021/11/25 08:55:58;;;;;;;28.07;17.63;;;4.20;99.90;;;;;;5053022;28;20454;-63
2021/11/25 08:58:25;;;;;;;24.77;16.30;;;4.30;99.90;;;;;;5051859;28;20468;-64
2021/11/25 09:00:52;;;;;;;27.50;17.23;;;4.30;99.90;;;;;;5053118;28;20445;-62
2021/11/25 09:03:19;;;;;;;25.50;16.47;;;4.30;99.90;;;;;;5052993;28;20456;-63
2021/11/25 09:05:46;;;;;;;25.90;16.67;;;4.30;99.90;;;;;;5053133;28;20531;-65
2021/11/25 09:08:13;;;;;;;27.43;17.23;;;4.30;99.90;;;;;;5051910;28;20470;-63
2021/11/25 09:10:40;;;;;;;28.87;17.00;;;4.30;99.90;;;;;;5052602;28;20487;-64
2021/11/25 09:13:08;;;;;;;27.33;17.47;;;4.20;99.90;;;;;;5053355;28;20508;-63
2021/11/25 09:15:39;;;;;;;26.23;17.27;;;4.20;99.90;;;;;;5052896;28;20448;-63
2021/11/25 09:18:06;;;;;;;23.90;15.37;;;4.20;99.90;;;;;;5051571;28;20568;-63
2021/11/25 09:20:34;;;;;;;31.20;20.67;;;4.30;99.90;;;;;;5053010;28;20444;-61
2021/11/25 09:23:05;;;;;;;26.73;17.20;;;4.50;99.90;;;;;;5052657;28;20902;-64
2021/11/25 09:25:32;;;;;;;26.77;17.70;;;4.60;99.90;;;;;;5052476;28;20477;-62
2021/11/25 09:27:59;;;;;;;23.13;16.17;;;4.50;99.90;;;;;;5051143;28;20476;-63
2021/11/25 09:30:28;;;;;;;21.70;15.90;;;4.40;99.90;;;;;;5052380;28;20483;-63
2021/11/25 09:32:56;;;;;;;24.50;15.70;;;4.30;99.90;;;;;;5052148;28;20529;-61
2021/11/25 09:35:23;;;;;;;27.70;17.70;;;4.20;99.90;;;;;;5052049;28;20448;-63
2021/11/25 09:37:51;;;;;;;28.67;19.10;;;4.20;99.90;;;;;;5050806;28;20467;-60
2021/11/25 09:40:27;;;;;;;28.17;16.67;;;4.10;99.90;;;;;;5051382;28;20444;-60
2021/11/25 09:42:56;;;;;;;26.23;17.87;;;4.10;99.90;;;;;;5051819;28;20448;-64
2021/11/25 09:45:23;;;;;;;28.93;17.93;;;4.20;99.90;;;;;;5051793;28;21029;-60
2021/11/25 09:47:53;;;;;;;26.60;17.00;;;4.20;99.90;;;;;;5050549;28;20476;-58
2021/11/25 09:50:21;;;;;;;26.03;17.87;;;4.30;99.90;;;;;;5051745;28;20867;-61
2021/11/25 09:52:51;;;;;;;26.47;17.80;;;4.20;99.90;;;;;;5051759;28;20460;-63
2021/11/25 09:55:18;;;;;;;25.57;17.00;;;4.20;99.90;;;;;;5051499;28;20460;-60
2021/11/25 09:57:46;;;;;;;26.77;17.43;;;4.20;99.90;;;;;;5050713;28;20476;-62
2021/11/25 10:00:15;;;;;;;24.93;17.13;;;4.30;99.90;;;;;;5051479;28;20449;-64
2021/11/25 10:02:42;;;;;;;25.17;15.70;;;4.50;99.90;;;;;;5051418;28;20453;-63
2021/11/25 10:05:10;;;;;;;24.10;15.93;;;4.60;99.90;;;;;;5051194;28;20920;-65
2021/11/25 10:07:41;;;;;;;29.80;18.50;;;4.80;99.90;;;;;;5049855;28;20479;-62
2021/11/25 10:10:27;;;;;;;25.33;18.00;;;4.90;99.90;;;;;;5050841;28;20970;-64
2021/11/25 10:12:59;;;;;;;27.23;17.20;;;5.00;99.90;;;;;;5050895;28;20981;-60
2021/11/25 10:15:31;;;;;;;23.87;16.33;;;5.00;99.90;;;;;;5050857;28;20448;-62
2021/11/25 10:17:59;;;;;;;29.57;18.27;;;5.20;99.90;;;;;;5050014;28;20560;-63
2021/11/25 10:20:34;;;;;;;25.73;17.63;;;5.30;99.90;;;;;;5051172;28;20448;-63
2021/11/25 10:23:23;;;;;;;25.10;17.23;;;5.30;99.90;;;;;;5051018;28;20436;-63
2021/11/25 10:25:55;;;;;;;25.67;17.47;;;5.50;99.90;;;;;;5050676;28;20795;-62
2021/11/25 10:28:31;;;;;;;27.77;19.03;;;5.60;99.90;;;;;;5049959;28;20838;-62
2021/11/25 10:31:01;;;;;;;27.00;19.57;;;5.80;99.90;;;;;;5051027;28;20602;-61
2021/11/25 10:33:31;;;;;;;26.50;15.80;;;5.80;99.90;;;;;;5051254;28;20444;-63
2021/11/25 10:39:01;;;;;;;25.93;16.67;;;5.70;99.90;;;;;;5029789;28;20959;-62
2021/11/25 10:41:30;;;;;;;23.03;16.90;;;5.90;99.90;;;;;;5051070;28;20523;-63
2021/11/25 10:44:09;;;;;;;25.60;18.20;;;5.90;99.90;;;;;;5050772;28;20440;-62
2021/11/25 10:46:39;;;;;;;22.97;16.33;;;5.90;99.90;;;;;;5049933;28;20444;-62
2021/11/25 10:49:05;;;;;;;27.10;18.00;;;5.80;99.90;;;;;;5051020;28;20467;-63
2021/11/25 10:51:35;;;;;;;28.10;19.57;;;5.90;99.90;;;;;;5050482;28;20480;-61
2021/11/25 10:54:04;;;;;;;25.20;17.23;;;5.90;99.90;;;;;;5050148;28;20449;-61
2021/11/25 10:56:36;;;;;;;24.83;17.20;;;5.90;99.90;;;;;;5049598;28;20440;-61
2021/11/25 10:59:03;;;;;;;28.07;19.03;;;5.90;99.90;;;;;;5050497;28;20471;-58
2021/11/25 11:01:35;;;;;;;23.90;17.53;;;5.80;99.90;;;;;;5050606;28;20937;-63
2021/11/25 11:04:02;;;;;;;28.03;17.33;;;5.60;99.90;;;;;;5050294;28;20461;-62
2021/11/25 11:06:35;;;;;;;25.97;17.50;;;5.60;99.90;;;;;;5049937;28;20452;-61
2021/11/25 11:09:03;;;;;;;24.67;16.97;;;5.60;99.90;;;;;;5050010;28;20460;-63
2021/11/25 11:11:32;;;;;;;26.70;16.90;;;5.60;99.90;;;;;;5050020;28;21007;-63
2021/11/25 11:14:14;;;;;;;26.33;19.37;;;5.50;99.90;;;;;;5051116;28;20290;-63
2021/11/25 11:16:49;;;;;;;26.07;18.00;;;5.30;99.90;;;;;;5049143;28;20467;-64
2021/11/25 11:19:17;;;;;;;25.10;17.63;;;5.20;99.90;;;;;;5050271;28;20454;-61
2021/11/25 11:21:48;;;;;;;23.57;15.30;;;5.10;99.90;;;;;;5050005;28;20451;-63
2021/11/25 11:24:17;;;;;;;24.80;16.77;;;5.00;99.90;;;;;;5049951;28;20439;-63
2021/11/25 11:26:47;;;;;;;29.50;18.63;;;5.00;99.90;;;;;;5048909;28;20951;-63
2021/11/25 11:29:16;;;;;;;26.57;18.47;;;5.10;99.90;;;;;;5049896;28;20988;-63
2021/11/25 11:31:44;;;;;;;23.03;16.93;;;5.10;99.90;;;;;;5049957;28;21010;-62
2021/11/25 11:34:12;;;;;;;28.47;18.47;;;5.30;99.90;;;;;;5049836;28;20441;-63
2021/11/25 11:36:42;;;;;;;26.03;18.60;;;5.40;99.90;;;;;;5048577;28;21001;-63
2021/11/25 11:39:12;;;;;;;24.27;17.60;;;5.40;99.90;;;;;;5049824;28;20535;-60
2021/11/25 11:41:42;;;;;;;24.77;17.20;;;5.40;99.90;;;;;;5049810;28;20939;-61
2021/11/25 11:44:09;;;;;;;22.97;16.77;;;5.10;99.90;;;;;;5049665;28;20527;-60
2021/11/25 11:46:38;;;;;;;27.53;18.30;;;5.00;99.90;;;;;;5048522;28;20481;-62
2021/11/25 11:49:06;;;;;;;25.70;17.27;;;4.90;99.90;;;;;;5049356;28;20544;-63
2021/11/25 11:51:34;;;;;;;27.50;18.60;;;4.80;99.90;;;;;;5049699;28;20486;-61
2021/11/25 11:54:03;;;;;;;25.87;16.77;;;4.80;99.90;;;;;;5049323;28;20950;-63
2021/11/25 11:56:41;;;;;;;27.20;19.00;;;4.80;99.90;;;;;;5048717;28;20444;-60
2021/11/25 11:59:10;;;;;;;25.27;16.70;;;4.80;99.90;;;;;;5050000;28;20551;-61
2021/11/25 12:01:37;;;;;;;29.60;19.67;;;4.80;99.90;;;;;;5049474;28;20530;-61
2021/11/25 12:04:16;;;;;;;28.67;17.57;;;4.80;99.90;;;;;;5050610;28;20455;-62
2021/11/25 12:06:44;;;;;;;26.87;18.20;;;4.70;99.90;;;;;;5052485;28;20440;-64
2021/11/25 12:09:32;;;;;;;31.20;18.37;;;4.60;99.90;;;;;;5052953;28;20850;-61
2021/11/25 12:12:09;;;;;;;30.73;18.47;;;4.70;99.90;;;;;;5053357;28;20494;-62
2021/11/25 12:14:36;;;;;;;29.80;17.70;;;4.70;99.90;;;;;;5054101;28;20472;-59
2021/11/25 12:17:07;;;;;;;30.40;18.20;;;4.80;99.90;;;;;;5052340;28;20441;-64
2021/11/25 12:19:36;;;;;;;30.63;18.73;;;4.70;99.90;;;;;;5053520;28;20459;-62
2021/11/25 12:22:04;;;;;;;28.43;18.77;;;4.60;99.90;;;;;;5053682;28;20467;-63
2021/11/25 12:24:43;;;;;;;29.30;18.50;;;4.60;99.90;;;;;;5052946;28;20532;-63
2021/11/25 12:27:18;;;;;;;31.03;17.57;;;4.60;99.90;;;;;;5052218;28;20477;-62
2021/11/25 12:29:50;;;;;;;28.93;19.77;;;4.60;99.90;;;;;;5052906;28;20509;-62
2021/11/25 12:32:35;;;;;;;27.30;18.70;;;4.70;99.90;;;;;;5052411;28;20515;-64
2021/11/25 12:35:25;;;;;;;28.23;19.40;;;4.70;99.90;;;;;;5052592;28;20918;-61
2021/11/25 12:38:00;;;;;;;28.07;17.93;;;4.70;99.90;;;;;;5051180;28;20464;-61
2021/11/25 12:40:46;;;;;;;27.17;17.43;;;4.60;99.90;;;;;;5052272;28;20447;-61
2021/11/25 12:43:16;;;;;;;30.40;19.63;;;4.50;99.90;;;;;;5052403;28;20443;-60
2021/11/25 12:45:45;;;;;;;29.20;17.83;;;4.40;99.90;;;;;;5052356;28;20459;-59
2021/11/25 12:48:18;;;;;;;26.83;16.63;;;4.30;99.90;;;;;;5044951;28;20475;-64